Time;durP1;ratioP1;P1;durP2;ratioP2;P2;SDS_P1;SDS_P2;PMS_P1;PMS_P2;Temp;Humidity;BMP_temperature;BMP_pressure;BME280_temperature;BME280_humidity;BME280_pressure;Samples;Min_cycle;Max_cycle;Signal;HPM_P1;HPM_P2
2021/06/05 00:02:08;;;;;;;16.02;12.75;;;19.00;99.90;;;;;;5097867;28;20572;-86
2021/06/05 00:04:34;;;;;;;19.98;13.15;;;19.10;99.90;;;;;;5098125;28;20051;-82
2021/06/05 00:07:01;;;;;;;16.17;13.13;;;19.00;99.90;;;;;;5098752;28;20079;-87
2021/06/05 00:09:26;;;;;;;19.98;13.95;;;18.90;99.90;;;;;;5101747;28;20043;-87
2021/06/05 00:11:52;;;;;;;17.33;13.00;;;18.90;99.90;;;;;;5082154;28;20477;-86
2021/06/05 00:14:17;;;;;;;18.23;14.77;;;19.80;99.90;;;;;;5081767;28;20036;-86
2021/06/05 00:16:46;;;;;;;18.02;14.35;;;18.80;99.90;;;;;;5074677;28;20040;-82
2021/06/05 00:19:13;;;;;;;18.37;13.87;;;18.80;99.90;;;;;;5080595;28;20032;-86
2021/06/05 00:21:39;;;;;;;18.08;15.10;;;18.80;99.90;;;;;;5082482;28;20107;-86
2021/06/05 00:24:08;;;;;;;20.50;15.00;;;18.80;99.90;;;;;;5076610;28;20032;-86
2021/06/05 00:26:34;;;;;;;20.02;15.55;;;18.70;99.90;;;;;;5075166;28;20052;-85
2021/06/05 00:29:00;;;;;;;19.58;15.77;;;18.70;99.90;;;;;;5098873;28;20044;-86
2021/06/05 00:31:26;;;;;;;18.67;14.90;;;18.70;99.90;;;;;;5103185;28;20076;-87
2021/06/05 00:33:52;;;;;;;18.73;14.30;;;18.70;99.90;;;;;;5102721;28;20130;-87
2021/06/05 00:36:17;;;;;;;19.15;15.38;;;18.70;99.90;;;;;;5106141;28;20051;-87
2021/06/05 00:38:44;;;;;;;19.75;15.55;;;18.80;99.90;;;;;;5105522;28;20484;-86
2021/06/05 00:41:15;;;;;;;20.23;15.70;;;18.80;99.90;;;;;;5105916;28;20032;-86
2021/06/05 00:43:43;;;;;;;18.23;14.82;;;18.80;99.90;;;;;;5089090;28;20078;-86
2021/06/05 00:46:11;;;;;;;18.95;15.50;;;18.90;99.90;;;;;;5106362;28;20069;-86
2021/06/05 00:48:37;;;;;;;19.70;14.88;;;18.90;99.90;;;;;;5106086;28;20111;-86
2021/06/05 00:51:04;;;;;;;20.50;15.48;;;18.90;99.90;;;;;;5106015;28;20070;-86
2021/06/05 00:53:29;;;;;;;23.08;16.27;;;18.90;99.90;;;;;;5113944;28;20119;-85
2021/06/05 00:55:59;;;;;;;19.90;15.15;;;18.90;99.90;;;;;;5110249;28;20406;-87
2021/06/05 00:58:28;;;;;;;19.23;15.20;;;18.90;99.90;;;;;;5109420;28;20039;-87
2021/06/05 01:00:56;;;;;;;20.42;14.30;;;18.90;99.90;;;;;;5109373;28;20051;-86
2021/06/05 01:03:23;;;;;;;18.90;13.85;;;18.80;99.90;;;;;;5108916;28;20043;-87
2021/06/05 01:05:56;;;;;;;20.13;15.07;;;18.80;99.90;;;;;;5105806;28;20505;-86
2021/06/05 01:08:29;;;;;;;19.05;15.52;;;18.80;99.90;;;;;;5103665;28;20038;-87
2021/06/05 01:11:00;;;;;;;19.00;14.65;;;18.80;99.90;;;;;;5096494;28;20419;-86
2021/06/05 01:13:35;;;;;;;16.83;13.75;;;18.80;99.90;;;;;;5127495;28;20035;-87
2021/06/05 01:16:06;;;;;;;18.52;14.23;;;18.80;99.90;;;;;;5109654;28;20047;-87
2021/06/05 01:18:37;;;;;;;18.80;15.52;;;18.70;99.90;;;;;;5108591;28;20031;-87
2021/06/05 01:21:27;;;;;;;24.90;16.65;;;18.70;99.90;;;;;;5109073;28;20051;-87
2021/06/05 01:24:07;;;;;;;18.98;14.93;;;18.70;99.90;;;;;;5106288;28;20324;-86
2021/06/05 01:26:36;;;;;;;21.88;15.98;;;18.60;99.90;;;;;;5103316;28;20068;-86
2021/06/05 01:29:12;;;;;;;18.83;15.35;;;18.60;99.90;;;;;;5106022;28;20056;-86
2021/06/05 01:31:40;;;;;;;21.75;15.30;;;18.60;99.90;;;;;;5090122;28;20050;-87
2021/06/05 01:34:07;;;;;;;18.67;15.70;;;18.50;99.90;;;;;;5089537;28;20054;-86
2021/06/05 01:36:35;;;;;;;22.33;16.60;;;18.40;99.90;;;;;;5106445;28;20096;-87
2021/06/05 01:39:04;;;;;;;25.73;19.35;;;18.50;99.90;;;;;;5089303;28;20127;-86
2021/06/05 01:41:32;;;;;;;22.90;17.27;;;18.40;99.90;;;;;;5089153;28;20048;-87
2021/06/05 01:44:00;;;;;;;22.30;17.00;;;18.40;99.90;;;;;;5089808;28;20072;-87
2021/06/05 01:46:29;;;;;;;25.73;19.20;;;18.40;99.90;;;;;;5089405;28;20437;-86
2021/06/05 01:48:55;;;;;;;24.07;17.67;;;18.40;99.90;;;;;;5089491;28;20032;-86
2021/06/05 01:51:22;;;;;;;22.77;16.70;;;18.40;99.90;;;;;;5090536;28;20558;-87
2021/06/05 01:53:51;;;;;;;21.27;15.88;;;18.40;99.90;;;;;;5090643;28;20039;-87
2021/06/05 01:56:22;;;;;;;22.45;16.33;;;18.40;99.90;;;;;;5089286;28;20047;-86
2021/06/05 01:58:48;;;;;;;20.58;17.00;;;18.30;99.90;;;;;;5107526;28;20036;-87
2021/06/05 02:01:16;;;;;;;21.23;17.15;;;18.30;99.90;;;;;;5108055;28;20130;-87
2021/06/05 02:03:42;;;;;;;22.70;16.88;;;18.30;99.90;;;;;;5090740;28;20071;-87
2021/06/05 02:06:09;;;;;;;25.58;19.00;;;18.30;99.90;;;;;;5091463;28;20035;-86
2021/06/05 02:08:34;;;;;;;22.98;17.40;;;18.30;99.90;;;;;;5089989;28;20118;-86
2021/06/05 02:11:04;;;;;;;18.13;14.63;;;18.30;99.90;;;;;;5107848;28;20040;-87
2021/06/05 02:13:35;;;;;;;20.63;16.90;;;18.20;99.90;;;;;;5091395;28;20044;-88
2021/06/05 02:16:06;;;;;;;22.60;16.58;;;18.20;99.90;;;;;;5092209;28;20036;-86
2021/06/05 02:18:35;;;;;;;19.73;15.63;;;18.20;99.90;;;;;;5091114;28;20036;-87
2021/06/05 02:21:05;;;;;;;25.40;17.05;;;18.10;99.90;;;;;;5091077;28;20048;-86
2021/06/05 02:23:37;;;;;;;19.85;15.35;;;19.40;99.90;;;;;;5108112;28;20123;-87
2021/06/05 02:26:03;;;;;;;21.45;15.68;;;18.00;99.90;;;;;;5090931;28;20111;-87
2021/06/05 02:28:31;;;;;;;22.70;16.67;;;17.90;99.90;;;;;;5089990;28;20506;-86
2021/06/05 02:30:59;;;;;;;22.27;16.42;;;17.90;99.90;;;;;;5107242;28;20040;-86
2021/06/05 02:33:25;;;;;;;22.80;17.38;;;17.80;99.90;;;;;;5088790;28;20560;-86
2021/06/05 02:35:54;;;;;;;20.67;16.05;;;17.80;99.90;;;;;;5091147;28;20036;-87
2021/06/05 02:38:20;;;;;;;25.42;18.50;;;17.80;99.90;;;;;;5109244;28;20043;-86
2021/06/05 02:40:47;;;;;;;25.92;17.58;;;17.90;99.90;;;;;;5094416;28;20470;-83
2021/06/05 02:43:18;;;;;;;21.90;18.05;;;18.00;99.90;;;;;;5070544;28;20412;-86
2021/06/05 02:45:49;;;;;;;23.08;17.30;;;18.00;99.90;;;;;;5069891;28;20044;-86
2021/06/05 02:48:15;;;;;;;21.73;17.08;;;18.00;99.90;;;;;;5070913;28;20047;-86
2021/06/05 02:50:44;;;;;;;21.67;16.60;;;18.00;99.90;;;;;;5070714;28;20036;-87
2021/06/05 02:53:11;;;;;;;24.85;17.40;;;18.00;99.90;;;;;;5070615;28;20051;-86
2021/06/05 02:55:37;;;;;;;19.50;16.63;;;18.00;99.90;;;;;;5069225;28;20056;-87
2021/06/05 02:58:06;;;;;;;22.40;16.35;;;18.00;99.90;;;;;;5070146;28;20066;-86
2021/06/05 03:00:34;;;;;;;22.75;17.20;;;18.10;99.90;;;;;;5070717;28;20041;-86
2021/06/05 03:03:01;;;;;;;19.83;16.02;;;18.10;99.90;;;;;;5070531;28;20036;-86
2021/06/05 03:05:28;;;;;;;24.33;17.15;;;18.10;99.90;;;;;;5069720;28;20049;-86
2021/06/05 03:07:55;;;;;;;20.67;16.83;;;18.20;99.90;;;;;;5069418;28;20060;-86
2021/06/05 03:10:26;;;;;;;18.65;14.80;;;18.20;99.90;;;;;;5068730;28;20049;-87
2021/06/05 03:12:52;;;;;;;18.75;15.48;;;18.20;99.90;;;;;;5069166;28;20067;-87
2021/06/05 03:15:18;;;;;;;21.13;15.45;;;18.20;99.90;;;;;;5067857;28;20112;-87
2021/06/05 03:17:44;;;;;;;16.90;14.30;;;18.20;99.90;;;;;;5067792;28;20041;-86
2021/06/05 03:20:13;;;;;;;17.40;14.25;;;18.20;99.90;;;;;;5066443;28;20044;-87
2021/06/05 03:22:39;;;;;;;19.98;16.20;;;18.30;99.90;;;;;;5068032;28;20064;-86
2021/06/05 03:25:06;;;;;;;19.65;15.73;;;18.30;99.90;;;;;;5066891;28;20036;-87
2021/06/05 03:27:33;;;;;;;16.73;12.93;;;18.20;99.90;;;;;;5066307;28;20040;-87
2021/06/05 03:29:59;;;;;;;18.42;12.85;;;18.20;99.90;;;;;;5066498;28;20123;-87
2021/06/05 03:32:24;;;;;;;18.05;13.30;;;18.20;99.90;;;;;;5084312;28;20533;-86
2021/06/05 03:34:50;;;;;;;18.38;15.65;;;18.30;99.90;;;;;;5083618;28;20045;-87
2021/06/05 03:37:15;;;;;;;19.67;14.75;;;18.20;99.90;;;;;;5084336;28;20040;-87
2021/06/05 03:39:41;;;;;;;16.63;13.57;;;18.20;99.90;;;;;;5083480;28;20516;-87
2021/06/05 03:42:08;;;;;;;16.27;13.57;;;18.20;99.90;;;;;;5067502;28;20040;-87
2021/06/05 03:44:35;;;;;;;18.17;14.73;;;18.40;99.90;;;;;;5085784;28;20047;-87
2021/06/05 03:47:02;;;;;;;17.27;13.02;;;18.40;99.90;;;;;;5067147;28;20152;-87
2021/06/05 03:49:28;;;;;;;17.23;13.10;;;18.40;99.90;;;;;;5085341;28;20051;-87
2021/06/05 03:51:53;;;;;;;16.23;12.77;;;18.40;99.90;;;;;;5067586;28;20107;-87
2021/06/05 03:54:19;;;;;;;13.82;11.73;;;18.40;99.90;;;;;;5066235;28;20089;-87
2021/06/05 03:56:45;;;;;;;16.38;11.95;;;18.40;99.90;;;;;;5067268;28;20044;-86
2021/06/05 03:59:11;;;;;;;16.35;11.60;;;18.50;99.90;;;;;;5068416;28;20048;-87
2021/06/05 04:01:38;;;;;;;18.05;12.35;;;18.50;99.90;;;;;;5067494;28;20037;-86
2021/06/05 04:04:05;;;;;;;15.80;12.88;;;18.40;99.90;;;;;;5066253;28;20101;-86
2021/06/05 04:06:31;;;;;;;15.95;12.07;;;18.50;99.90;;;;;;5066032;28;20043;-87
2021/06/05 04:09:00;;;;;;;16.00;13.02;;;18.50;99.90;;;;;;5066539;28;20048;-87
2021/06/05 04:11:28;;;;;;;14.52;11.65;;;18.50;99.90;;;;;;5066448;28;20082;-87
2021/06/05 04:13:54;;;;;;;16.90;12.85;;;18.60;99.90;;;;;;5065960;28;20043;-86
2021/06/05 04:16:20;;;;;;;17.05;12.07;;;18.60;99.90;;;;;;5064873;28;20040;-87
2021/06/05 04:18:47;;;;;;;15.48;12.00;;;18.60;99.90;;;;;;5081993;28;20139;-86
2021/06/05 04:21:15;;;;;;;14.48;11.48;;;18.70;99.90;;;;;;5065913;28;20048;-87
2021/06/05 04:23:41;;;;;;;16.65;12.55;;;18.60;99.90;;;;;;5065419;28;20044;-87
2021/06/05 04:26:07;;;;;;;17.70;12.98;;;18.70;99.90;;;;;;5065204;28;20067;-86
2021/06/05 04:28:34;;;;;;;17.25;12.80;;;18.70;99.90;;;;;;5064649;28;20419;-87
2021/06/05 04:31:01;;;;;;;14.88;13.00;;;19.60;99.90;;;;;;5063606;28;20047;-86
2021/06/05 04:33:28;;;;;;;16.52;12.38;;;18.80;99.90;;;;;;5063681;28;20178;-87
2021/06/05 04:35:56;;;;;;;15.35;12.00;;;18.80;99.90;;;;;;5064599;28;20051;-87
2021/06/05 04:38:22;;;;;;;16.90;13.27;;;18.80;99.90;;;;;;5063185;28;20083;-87
2021/06/05 04:40:48;;;;;;;16.40;12.15;;;18.80;99.90;;;;;;5063275;28;20052;-87
2021/06/05 04:43:15;;;;;;;15.93;13.05;;;18.80;99.90;;;;;;5064115;28;20032;-87
2021/06/05 04:45:42;;;;;;;13.43;11.82;;;18.80;99.90;;;;;;5063247;28;20041;-87
2021/06/05 04:48:09;;;;;;;14.27;11.25;;;18.90;99.90;;;;;;5063618;28;20036;-87
2021/06/05 04:50:38;;;;;;;16.63;13.15;;;19.00;99.90;;;;;;5081129;28;20048;-87
2021/06/05 04:53:06;;;;;;;17.25;13.85;;;19.00;99.90;;;;;;5082648;28;20068;-87
2021/06/05 04:55:32;;;;;;;17.75;13.27;;;19.00;99.90;;;;;;5062995;28;20143;-87
2021/06/05 04:57:58;;;;;;;18.33;13.13;;;19.00;99.90;;;;;;5062274;28;20055;-87
2021/06/05 05:00:28;;;;;;;17.42;11.95;;;19.10;99.90;;;;;;5062314;28;20048;-86
2021/06/05 05:02:53;;;;;;;19.45;12.77;;;19.10;99.90;;;;;;5061846;28;20061;-86
2021/06/05 05:05:20;;;;;;;16.52;11.32;;;19.10;99.90;;;;;;5060513;28;20040;-86
2021/06/05 05:07:46;;;;;;;19.48;12.40;;;19.20;99.90;;;;;;5060975;28;20055;-87
2021/06/05 05:10:15;;;;;;;15.50;13.10;;;19.20;99.90;;;;;;5080312;28;20047;-87
2021/06/05 05:12:41;;;;;;;15.27;13.17;;;19.30;99.90;;;;;;5061230;28;20072;-87
2021/06/05 05:15:07;;;;;;;15.40;11.60;;;19.30;99.90;;;;;;5060368;28;20037;-87
2021/06/05 05:17:33;;;;;;;17.88;13.50;;;19.40;99.90;;;;;;5059859;28;20075;-86
2021/06/05 05:19:59;;;;;;;17.13;12.73;;;19.50;99.90;;;;;;5060998;28;20039;-88
2021/06/05 05:22:24;;;;;;;18.33;12.68;;;19.50;99.90;;;;;;5063305;28;20041;-87
2021/06/05 05:24:50;;;;;;;17.42;12.07;;;19.40;99.90;;;;;;5063655;28;20455;-87
2021/06/05 05:27:17;;;;;;;16.48;13.15;;;19.50;99.90;;;;;;5062831;28;20036;-87
2021/06/05 05:29:43;;;;;;;15.20;11.57;;;19.60;99.90;;;;;;5062777;28;20033;-87
2021/06/05 05:32:09;;;;;;;17.75;12.77;;;19.60;99.90;;;;;;5063352;28;20488;-87
2021/06/05 05:34:34;;;;;;;17.42;12.23;;;19.70;99.90;;;;;;5080878;28;20043;-87
2021/06/05 05:37:00;;;;;;;16.77;13.68;;;19.70;99.90;;;;;;5063391;28;20041;-87
2021/06/05 05:39:26;;;;;;;15.30;12.70;;;19.60;99.90;;;;;;5062740;28;20036;-87
2021/06/05 05:41:53;;;;;;;19.63;13.55;;;19.60;99.90;;;;;;5081387;28;20040;-88
2021/06/05 05:44:20;;;;;;;18.33;14.68;;;19.60;99.90;;;;;;5062398;28;20036;-87
2021/06/05 05:46:48;;;;;;;16.42;12.63;;;19.60;99.90;;;;;;5062778;28;20101;-87
2021/06/05 05:49:14;;;;;;;16.90;12.98;;;19.70;99.90;;;;;;5062619;28;20040;-87
2021/06/05 05:51:40;;;;;;;19.52;15.48;;;19.70;99.90;;;;;;5062764;28;20099;-87
2021/06/05 05:54:05;;;;;;;20.52;14.65;;;19.80;99.90;;;;;;5062492;28;20054;-87
2021/06/05 05:56:33;;;;;;;18.65;14.95;;;19.80;99.90;;;;;;5062364;28;20040;-87
2021/06/05 05:59:00;;;;;;;22.88;16.45;;;19.80;99.90;;;;;;5063288;28;20610;-87
2021/06/05 06:01:28;;;;;;;25.10;16.48;;;19.90;99.90;;;;;;5061611;28;20077;-87
2021/06/05 06:03:56;;;;;;;23.48;17.95;;;19.90;99.90;;;;;;5075719;28;20052;-86
2021/06/05 06:06:23;;;;;;;22.73;17.52;;;20.00;99.90;;;;;;5059827;28;20036;-86
2021/06/05 06:08:48;;;;;;;26.65;19.98;;;20.00;99.90;;;;;;5059058;28;20523;-87
2021/06/05 06:11:16;;;;;;;25.80;19.77;;;20.00;99.90;;;;;;5057933;28;20036;-86
2021/06/05 06:13:42;;;;;;;28.30;21.33;;;20.10;99.90;;;;;;5058227;28;20068;-85
2021/06/05 06:16:09;;;;;;;25.90;19.92;;;20.10;99.90;;;;;;5074510;28;20064;-84
2021/06/05 06:18:37;;;;;;;28.88;21.65;;;20.30;99.90;;;;;;5057295;28;20067;-86
2021/06/05 06:21:06;;;;;;;25.23;19.92;;;20.40;99.90;;;;;;5056858;28;20411;-86
2021/06/05 06:23:35;;;;;;;26.90;19.67;;;20.50;99.90;;;;;;5056191;28;20123;-84
2021/06/05 06:26:04;;;;;;;28.30;20.50;;;20.70;99.90;;;;;;5056379;28;20083;-86
2021/06/05 06:28:32;;;;;;;24.70;18.25;;;20.80;99.90;;;;;;5055180;28;20555;-86
2021/06/05 06:30:59;;;;;;;26.17;18.88;;;21.00;99.90;;;;;;5055381;28;20080;-86
2021/06/05 06:33:26;;;;;;;25.02;19.05;;;21.00;99.90;;;;;;5054795;28;20138;-86
2021/06/05 06:35:53;;;;;;;25.02;19.63;;;21.20;99.90;;;;;;5055367;28;20044;-84
2021/06/05 06:38:22;;;;;;;27.17;19.38;;;21.30;99.90;;;;;;5055167;28;20052;-84
2021/06/05 06:40:48;;;;;;;27.17;19.88;;;21.50;99.90;;;;;;5054482;28;20080;-86
2021/06/05 06:43:17;;;;;;;26.35;19.90;;;21.60;99.90;;;;;;5055425;28;20099;-84
2021/06/05 06:45:43;;;;;;;24.05;17.92;;;21.80;99.90;;;;;;5055309;28;20044;-86
2021/06/05 06:48:09;;;;;;;23.02;16.58;;;21.90;99.90;;;;;;5065547;28;20036;-86
2021/06/05 06:50:35;;;;;;;21.80;16.20;;;22.10;99.90;;;;;;5071082;28;20040;-87
2021/06/05 06:53:02;;;;;;;21.33;15.30;;;22.20;99.90;;;;;;5070949;28;20044;-85
2021/06/05 06:55:28;;;;;;;20.08;16.00;;;22.40;99.90;;;;;;5072225;28;20465;-86
2021/06/05 06:57:54;;;;;;;21.17;15.45;;;22.50;99.90;;;;;;5053932;28;20090;-86
2021/06/05 07:00:25;;;;;;;18.80;14.02;;;22.40;99.90;;;;;;5070448;28;20076;-85
2021/06/05 07:02:50;;;;;;;20.48;14.20;;;22.60;99.90;;;;;;5071263;28;20051;-84
2021/06/05 07:05:16;;;;;;;22.00;13.88;;;22.80;99.90;;;;;;5054415;28;20044;-87
2021/06/05 07:07:42;;;;;;;17.52;13.30;;;22.70;99.90;;;;;;5054100;28;20070;-86
2021/06/05 07:10:12;;;;;;;18.13;14.35;;;22.90;99.90;;;;;;5053755;28;20040;-86
2021/06/05 07:12:38;;;;;;;17.30;14.02;;;23.10;99.90;;;;;;5053680;28;20139;-86
2021/06/05 07:15:05;;;;;;;20.02;14.43;;;23.10;99.90;;;;;;5071295;28;20132;-86
2021/06/05 07:17:31;;;;;;;18.90;13.48;;;22.90;99.90;;;;;;5053770;28;20044;-87
2021/06/05 07:19:57;;;;;;;19.42;13.80;;;22.80;99.90;;;;;;5053856;28;20032;-86
2021/06/05 07:22:23;;;;;;;19.00;14.18;;;22.80;99.90;;;;;;5053574;28;20046;-85
2021/06/05 07:24:48;;;;;;;16.98;13.52;;;22.70;99.90;;;;;;5071720;28;20079;-86
2021/06/05 07:27:16;;;;;;;19.15;13.57;;;22.70;99.90;;;;;;5053376;28;20047;-85
2021/06/05 07:29:42;;;;;;;21.15;14.35;;;22.70;99.90;;;;;;5071657;28;20054;-83
2021/06/05 07:32:08;;;;;;;16.65;13.10;;;22.50;99.90;;;;;;5053990;28;20056;-85
2021/06/05 07:34:34;;;;;;;17.27;14.13;;;22.50;99.90;;;;;;5054101;28;20407;-85
2021/06/05 07:37:06;;;;;;;21.13;14.68;;;22.60;99.90;;;;;;5053564;28;20043;-84
2021/06/05 07:39:32;;;;;;;21.77;14.70;;;22.50;99.90;;;;;;5055895;28;20063;-86
2021/06/05 07:42:01;;;;;;;18.90;13.65;;;22.40;99.90;;;;;;5093821;28;20047;-84
2021/06/05 07:44:30;;;;;;;20.88;14.73;;;22.50;99.90;;;;;;5074665;28;20036;-86
2021/06/05 07:46:58;;;;;;;19.02;14.77;;;22.50;99.90;;;;;;5097480;28;20119;-87
2021/06/05 07:49:24;;;;;;;21.15;14.40;;;22.70;99.90;;;;;;5092683;28;20097;-87
2021/06/05 07:51:51;;;;;;;20.83;14.65;;;22.80;99.90;;;;;;5076631;28;20035;-88
2021/06/05 07:54:16;;;;;;;21.02;13.23;;;22.70;99.90;;;;;;5093847;28;20509;-87
2021/06/05 07:56:47;;;;;;;18.20;14.07;;;22.80;99.90;;;;;;5095358;28;20118;-87
2021/06/05 07:59:13;;;;;;;20.30;14.32;;;22.60;99.90;;;;;;5093950;28;20438;-87
2021/06/05 08:01:40;;;;;;;19.70;13.70;;;22.60;99.90;;;;;;5094118;28;20028;-87
2021/06/05 08:04:05;;;;;;;18.98;13.57;;;23.90;99.90;;;;;;5093971;28;20470;-87
2021/06/05 08:06:31;;;;;;;19.08;14.68;;;22.60;99.90;;;;;;5104685;28;20075;-87
2021/06/05 08:08:56;;;;;;;19.50;14.63;;;22.70;99.90;;;;;;5075217;28;20040;-88
2021/06/05 08:11:22;;;;;;;20.63;15.55;;;22.60;99.90;;;;;;5057456;28;20462;-87
2021/06/05 08:13:48;;;;;;;23.30;16.52;;;22.20;99.90;;;;;;5057334;28;20075;-87
2021/06/05 08:16:14;;;;;;;21.63;16.55;;;22.00;99.90;;;;;;5057699;28;20149;-87
2021/06/05 08:18:41;;;;;;;25.73;17.10;;;22.00;99.90;;;;;;5057412;28;20399;-88
2021/06/05 08:21:09;;;;;;;22.52;18.00;;;21.80;99.90;;;;;;5059328;28;20063;-87
2021/06/05 08:23:36;;;;;;;26.55;19.20;;;21.90;99.90;;;;;;5058682;28;20075;-87
2021/06/05 08:26:03;;;;;;;22.52;17.17;;;21.90;99.90;;;;;;5075919;28;20047;-87
2021/06/05 08:28:29;;;;;;;23.88;18.25;;;22.10;99.90;;;;;;5056741;28;20052;-87
2021/06/05 08:30:58;;;;;;;20.55;16.55;;;22.40;99.90;;;;;;5057179;28;20047;-87
2021/06/05 08:33:24;;;;;;;21.58;16.73;;;22.50;99.90;;;;;;5074525;28;20048;-87
2021/06/05 08:35:52;;;;;;;22.52;15.55;;;22.70;99.90;;;;;;5056495;28;20033;-88
2021/06/05 08:38:21;;;;;;;21.52;15.75;;;22.90;99.90;;;;;;5061053;28;20422;-87
2021/06/05 08:40:51;;;;;;;23.77;17.83;;;23.00;99.90;;;;;;5076324;28;20036;-86
2021/06/05 08:43:20;;;;;;;;;;;23.10;99.90;;;;;;5076574;28;20073;-87
2021/06/05 08:45:46;;;;;;;22.98;17.05;;;23.10;99.90;;;;;;5076861;28;19923;-87
2021/06/05 08:48:15;;;;;;;22.63;16.40;;;23.20;99.90;;;;;;5076809;28;20506;-87
2021/06/05 08:50:41;;;;;;;24.42;16.65;;;23.30;99.90;;;;;;5076498;28;20044;-87
2021/06/05 08:53:15;;;;;;;20.17;15.85;;;23.20;99.90;;;;;;5076427;28;20563;-87
2021/06/05 08:55:43;;;;;;;23.75;15.38;;;23.30;99.90;;;;;;5078242;28;20044;-87
2021/06/05 08:58:28;;;;;;;20.88;16.08;;;23.30;99.90;;;;;;5080249;28;20040;-87
2021/06/05 09:00:57;;;;;;;21.95;17.20;;;23.20;99.90;;;;;;5080320;28;20040;-88
2021/06/05 09:03:24;;;;;;;17.50;13.90;;;22.90;99.90;;;;;;5081291;28;20051;-88
2021/06/05 09:05:53;;;;;;;22.65;15.75;;;22.90;99.90;;;;;;5080105;28;20048;-88
2021/06/05 09:08:22;;;;;;;19.25;13.52;;;23.00;99.90;;;;;;5079788;28;20040;-87
2021/06/05 09:10:49;;;;;;;20.07;14.53;;;23.20;99.90;;;;;;5097888;28;20032;-87
2021/06/05 09:13:15;;;;;;;19.58;15.60;;;23.40;99.90;;;;;;5079578;28;20283;-88
2021/06/05 09:15:41;;;;;;;17.88;14.20;;;23.50;99.90;;;;;;5096467;28;20043;-88
2021/06/05 09:18:09;;;;;;;21.67;15.77;;;23.50;99.90;;;;;;5079730;28;20040;-88
2021/06/05 09:20:38;;;;;;;20.52;15.48;;;23.70;99.90;;;;;;5079403;28;20079;-88
2021/06/05 09:23:25;;;;;;;20.83;15.43;;;23.80;99.90;;;;;;5079221;28;20456;-88
2021/06/05 09:25:52;;;;;;;18.73;15.07;;;23.90;99.90;;;;;;5079154;28;20483;-88
2021/06/05 09:28:24;;;;;;;20.92;15.82;;;23.80;99.90;;;;;;5079068;28;20437;-87
2021/06/05 09:30:53;;;;;;;20.70;15.82;;;23.50;99.90;;;;;;5079821;28;20044;-88
2021/06/05 09:33:33;;;;;;;20.95;16.45;;;23.50;99.90;;;;;;5097468;28;20048;-87
2021/06/05 09:36:26;;;;;;;22.05;16.85;;;23.50;99.90;;;;;;5080181;28;20130;-87
2021/06/05 09:38:56;;;;;;;26.00;19.60;;;23.60;99.90;;;;;;5079806;28;20044;-87
2021/06/05 09:41:25;;;;;;;25.42;20.70;;;23.40;99.90;;;;;;5080019;28;20040;-87
2021/06/05 09:43:53;;;;;;;24.75;20.27;;;23.30;99.90;;;;;;5080050;28;20578;-87
2021/06/05 09:46:26;;;;;;;23.08;19.73;;;23.30;99.90;;;;;;5079972;28;20078;-87
2021/06/05 09:49:09;;;;;;;23.98;19.42;;;23.30;99.90;;;;;;5079390;28;20062;-87
2021/06/05 09:51:38;;;;;;;22.85;19.23;;;23.40;99.90;;;;;;5079291;28;20044;-87
2021/06/05 09:54:09;;;;;;;26.25;21.73;;;25.00;99.90;;;;;;5079039;28;20410;-87
2021/06/05 09:56:37;;;;;;;25.73;21.17;;;23.90;99.90;;;;;;5078965;28;20055;-87
2021/06/05 09:59:15;;;;;;;29.70;22.58;;;23.90;99.90;;;;;;5097112;28;20063;-87
2021/06/05 10:01:41;;;;;;;27.35;22.38;;;23.70;99.90;;;;;;5097096;28;20032;-86
2021/06/05 10:04:16;;;;;;;27.50;22.10;;;23.70;99.90;;;;;;5078496;28;20503;-88
2021/06/05 10:06:46;;;;;;;30.80;23.35;;;23.90;99.90;;;;;;5078482;28;20453;-88
2021/06/05 10:09:33;;;;;;;28.60;24.10;;;24.10;99.90;;;;;;5078487;28;20040;-88
2021/06/05 10:12:03;;;;;;;26.98;23.00;;;24.20;99.90;;;;;;5078320;28;20068;-88
2021/06/05 10:15:03;;;;;;;30.85;25.70;;;24.40;99.90;;;;;;5078478;28;20044;-88
2021/06/05 10:17:39;;;;;;;35.33;27.42;;;24.40;99.90;;;;;;5092022;28;20408;-88
2021/06/05 10:20:18;;;;;;;35.63;29.13;;;24.50;99.90;;;;;;5078326;28;20035;-88
2021/06/05 10:22:45;;;;;;;37.20;29.70;;;24.50;99.90;;;;;;5079389;28;20097;-87
2021/06/05 10:25:25;;;;;;;37.97;30.73;;;24.50;99.90;;;;;;5078479;28;20055;-87
2021/06/05 10:27:51;;;;;;;39.25;31.40;;;24.30;99.90;;;;;;5078625;28;20457;-87
2021/06/05 10:30:29;;;;;;;37.97;31.38;;;24.10;99.90;;;;;;5078422;28;20407;-87
2021/06/05 10:32:58;;;;;;;39.92;31.13;;;23.90;99.90;;;;;;5078455;28;20494;-87
2021/06/05 10:35:29;;;;;;;39.38;31.63;;;23.90;99.90;;;;;;5078640;28;20089;-87
2021/06/05 10:38:03;;;;;;;33.05;27.90;;;23.70;99.90;;;;;;5078347;28;20031;-87
2021/06/05 10:40:30;;;;;;;38.15;30.00;;;23.70;99.90;;;;;;5082508;28;20052;-86
2021/06/05 10:42:56;;;;;;;37.05;29.00;;;23.80;99.90;;;;;;5054331;28;20048;-84
2021/06/05 10:45:27;;;;;;;35.60;30.13;;;23.90;99.90;;;;;;5054330;28;20071;-87
2021/06/05 10:47:59;;;;;;;37.85;30.17;;;23.90;99.90;;;;;;5071951;28;20052;-86
2021/06/05 10:50:28;;;;;;;37.22;30.13;;;23.90;99.90;;;;;;5054245;28;20044;-85
2021/06/05 10:52:57;;;;;;;33.20;27.67;;;23.90;99.90;;;;;;5055002;28;20067;-84
2021/06/05 10:55:27;;;;;;;33.40;27.02;;;23.70;99.90;;;;;;5054346;28;20103;-85
2021/06/05 10:58:24;;;;;;;29.80;25.65;;;23.80;99.90;;;;;;5054232;28;20046;-87
2021/06/05 11:00:53;;;;;;;32.05;24.48;;;24.00;99.90;;;;;;5070426;28;20577;-86
2021/06/05 11:03:47;;;;;;;29.08;23.50;;;24.20;99.90;;;;;;5053741;28;20056;-85
2021/06/05 11:06:16;;;;;;;27.50;24.25;;;24.40;99.90;;;;;;5071991;28;20036;-86
2021/06/05 11:08:49;;;;;;;24.73;21.05;;;24.60;99.90;;;;;;5071339;28;20036;-87
2021/06/05 11:11:43;;;;;;;22.85;18.58;;;24.60;99.90;;;;;;5053485;28;20036;-87
2021/06/05 11:14:45;;;;;;;25.00;18.83;;;24.80;99.90;;;;;;5053672;28;20052;-86
2021/06/05 11:17:37;;;;;;;23.15;18.95;;;24.80;99.90;;;;;;5052302;28;20514;-84
2021/06/05 11:20:38;;;;;;;23.90;18.73;;;24.80;99.90;;;;;;5053529;28;20047;-87
2021/06/05 11:23:26;;;;;;;24.35;18.67;;;25.00;99.90;;;;;;5069797;28;20562;-86
2021/06/05 11:25:54;;;;;;;20.40;17.40;;;25.30;99.90;;;;;;5069400;28;20051;-86
2021/06/05 11:28:48;;;;;;;21.00;18.15;;;25.30;99.90;;;;;;5068925;28;20040;-86
2021/06/05 11:31:39;;;;;;;24.63;19.13;;;25.20;99.90;;;;;;5052067;28;20048;-86
2021/06/05 11:34:07;;;;;;;24.75;20.70;;;24.60;99.90;;;;;;5069217;28;20549;-87
2021/06/05 11:36:43;;;;;;;24.33;20.35;;;24.40;99.90;;;;;;5071002;28;20530;-85
2021/06/05 11:39:34;;;;;;;22.05;18.83;;;24.30;99.90;;;;;;5070930;28;20197;-86
2021/06/05 11:42:03;;;;;;;21.13;18.23;;;24.60;99.90;;;;;;5089194;28;20495;-86
2021/06/05 11:44:31;;;;;;;;;;;24.90;99.90;;;;;;5089975;28;20082;-83
2021/06/05 11:47:00;;;;;;;23.88;20.20;;;25.00;99.90;;;;;;5089465;28;19940;-86
2021/06/05 11:49:47;;;;;;;;;;;25.10;99.90;;;;;;5089815;28;20503;-86
2021/06/05 11:52:43;;;;;;;28.98;21.75;;;25.10;99.90;;;;;;5089184;28;20423;-86
2021/06/05 11:55:44;;;;;;;24.25;20.15;;;25.30;99.90;;;;;;5090740;28;20122;-84
2021/06/05 11:58:32;;;;;;;21.63;17.95;;;25.30;99.90;;;;;;5065677;28;20385;-87
2021/06/05 12:01:13;;;;;;;23.85;19.42;;;26.00;99.90;;;;;;5089314;28;20135;-84
2021/06/05 12:03:45;;;;;;;24.55;20.45;;;26.10;99.90;;;;;;5088942;28;20043;-84
2021/06/05 12:06:16;;;;;;;22.95;18.45;;;25.60;99.90;;;;;;5089265;28;20039;-87
2021/06/05 12:08:43;;;;;;;23.52;19.00;;;25.60;99.90;;;;;;5089039;28;20036;-86
2021/06/05 12:11:20;;;;;;;23.38;20.15;;;25.80;99.90;;;;;;5089235;28;20427;-87
2021/06/05 12:13:48;;;;;;;25.98;20.35;;;26.30;99.90;;;;;;5089062;28;20467;-87
2021/06/05 12:16:17;;;;;;;25.35;20.38;;;26.30;99.90;;;;;;5088301;28;20048;-84
2021/06/05 12:18:46;;;;;;;23.05;17.02;;;26.50;99.90;;;;;;5090094;28;20104;-87
2021/06/05 12:21:31;;;;;;;22.33;18.60;;;26.70;99.90;;;;;;5088795;28;20048;-85
2021/06/05 12:23:58;;;;;;;24.58;20.50;;;27.00;99.90;;;;;;5090055;28;20048;-86
2021/06/05 12:26:27;;;;;;;28.20;22.58;;;25.90;99.90;;;;;;5089021;28;20040;-86
2021/06/05 12:29:11;;;;;;;28.90;22.63;;;25.30;99.90;;;;;;5089592;28;20162;-87
2021/06/05 12:31:41;;;;;;;28.58;22.52;;;25.30;99.90;;;;;;5093714;28;20288;-87
2021/06/05 12:34:09;;;;;;;26.33;22.30;;;25.50;99.90;;;;;;5093165;28;20036;-87
2021/06/05 12:36:38;;;;;;;26.33;22.65;;;25.70;99.90;;;;;;5092751;28;20040;-88
2021/06/05 12:39:13;;;;;;;25.45;21.45;;;26.10;99.90;;;;;;5076064;28;20043;-87
2021/06/05 12:41:42;;;;;;;24.73;20.63;;;26.20;99.90;;;;;;5093592;28;20036;-87